Time;durP1;ratioP1;P1;durP2;ratioP2;P2;SDS_P1;SDS_P2;PMS_P1;PMS_P2;Temp;Humidity;BMP_temperature;BMP_pressure;BME280_temperature;BME280_humidity;BME280_pressure;Samples;Min_cycle;Max_cycle;Signal;HPM_P1;HPM_P2
2023/05/20 00:01:43;;;;;;;11.13;2.90;;;;;;;11.27;72.74;101928.41;5085208;28;20056;-73
2023/05/20 00:04:11;;;;;;;6.90;3.80;;;;;;;11.24;72.96;101933.78;5087633;28;20046;-74
2023/05/20 00:06:38;;;;;;;5.90;3.25;;;;;;;11.22;73.34;101931.22;5084431;28;20234;-74
2023/05/20 00:09:05;;;;;;;8.57;3.03;;;;;;;11.19;73.66;101928.72;5070155;28;20048;-74
2023/05/20 00:11:33;;;;;;;10.63;3.40;;;;;;;11.15;73.84;101925.34;5089215;28;20056;-74
2023/05/20 00:14:00;;;;;;;6.13;2.90;;;;;;;11.12;74.01;101928.13;5068867;28;20051;-74
2023/05/20 00:16:28;;;;;;;6.85;3.13;;;;;;;11.07;74.39;101930.06;5070480;28;20109;-74
2023/05/20 00:18:56;;;;;;;5.45;3.08;;;;;;;11.04;74.54;101924.94;5085145;28;20047;-74
2023/05/20 00:21:23;;;;;;;7.90;3.63;;;;;;;11.02;74.67;101924.13;5090645;28;20139;-74
2023/05/20 00:23:50;;;;;;;7.05;3.03;;;;;;;11.00;75.17;101933.03;5088551;28;20428;-74
2023/05/20 00:26:20;;;;;;;4.88;2.85;;;;;;;10.98;75.63;101925.16;5088602;28;20050;-74
2023/05/20 00:28:47;;;;;;;7.43;3.55;;;;;;;10.98;75.55;101921.66;5087534;28;20131;-74
2023/05/20 00:31:14;;;;;;;4.78;2.90;;;;;;;10.94;76.04;101920.91;5088873;28;20047;-74
2023/05/20 00:33:42;;;;;;;5.15;2.90;;;;;;;10.93;76.47;101931.53;5084529;28;20125;-73
2023/05/20 00:36:09;;;;;;;5.15;2.72;;;;;;;10.89;77.53;101931.66;5088953;28;20048;-74
2023/05/20 00:38:37;;;;;;;11.70;3.20;;;;;;;10.85;77.37;101923.91;5087226;28;20059;-73
2023/05/20 00:41:04;;;;;;;6.70;3.50;;;;;;;10.82;77.60;101924.91;5086774;28;20063;-73
2023/05/20 00:43:31;;;;;;;8.70;3.58;;;;;;;10.81;77.69;101927.63;5087328;28;20058;-73
2023/05/20 00:45:59;;;;;;;4.13;2.60;;;;;;;10.78;78.40;101927.72;5089035;28;20086;-74
2023/05/20 00:48:31;;;;;;;12.52;3.58;;;;;;;10.75;78.57;101931.31;5086230;28;20051;-74
2023/05/20 00:50:59;;;;;;;5.35;2.70;;;;;;;10.74;79.03;101921.72;5082309;28;20068;-74
2023/05/20 00:53:27;;;;;;;9.95;3.58;;;;;;;10.70;79.67;101925.38;5088284;28;20138;-74
2023/05/20 00:55:54;;;;;;;6.13;3.53;;;;;;;10.68;80.13;101931.66;5086281;28;20044;-74
2023/05/20 00:58:21;;;;;;;6.50;3.67;;;;;;;10.65;80.23;101928.19;5082150;28;20049;-73
2023/05/20 01:00:49;;;;;;;6.47;3.63;;;;;;;10.62;81.01;101916.91;5083626;28;20067;-73
2023/05/20 01:03:16;;;;;;;5.75;3.78;;;;;;;10.60;80.93;101921.41;5082794;28;20067;-74
2023/05/20 01:05:44;;;;;;;5.05;4.03;;;;;;;10.57;81.48;101926.78;5086594;28;20429;-74
2023/05/20 01:08:11;;;;;;;7.20;3.33;;;;;;;10.55;82.18;101918.09;5086930;28;20532;-73
2023/05/20 01:10:41;;;;;;;8.65;3.67;;;;;;;10.53;82.90;101914.63;5086301;28;20056;-73
2023/05/20 01:13:11;;;;;;;11.48;4.60;;;;;;;10.51;82.77;101909.44;5086342;28;20046;-74
2023/05/20 01:15:39;;;;;;;7.10;3.70;;;;;;;10.50;83.16;101914.78;5085408;28;20056;-73
2023/05/20 01:18:09;;;;;;;6.85;3.60;;;;;;;10.47;83.08;101910.47;5068145;28;20050;-74
2023/05/20 01:20:38;;;;;;;7.57;3.97;;;;;;;10.47;83.43;101905.19;5084235;28;20066;-73
2023/05/20 01:23:05;;;;;;;8.27;3.97;;;;;;;10.45;83.49;101903.56;5089193;28;20051;-73
2023/05/20 01:25:32;;;;;;;6.45;3.70;;;;;;;10.44;83.81;101907.94;5084932;28;20058;-73
2023/05/20 01:28:00;;;;;;;6.85;3.50;;;;;;;10.41;83.96;101904.59;5087144;28;20629;-74
2023/05/20 01:30:33;;;;;;;6.78;3.55;;;;;;;10.38;84.41;101906.41;5083916;28;20526;-73
2023/05/20 01:33:05;;;;;;;7.78;3.72;;;;;;;10.37;84.75;101902.06;5086100;28;20051;-73
2023/05/20 01:35:33;;;;;;;6.20;3.10;;;;;;;10.34;84.55;101902.16;5070802;28;20048;-73
2023/05/20 01:38:04;;;;;;;8.82;3.88;;;;;;;10.33;84.43;101891.72;5070078;28;20504;-73
2023/05/20 01:40:32;;;;;;;6.07;3.63;;;;;;;10.30;85.52;101897.94;5051894;28;20542;-73
2023/05/20 01:43:00;;;;;;;6.75;3.78;;;;;;;10.28;85.88;101891.03;5085789;28;20066;-73
2023/05/20 01:45:27;;;;;;;5.90;3.58;;;;;;;10.28;86.14;101901.56;5083633;28;20056;-74
2023/05/20 01:47:54;;;;;;;7.60;3.90;;;;;;;10.26;86.33;101892.84;5085497;28;20234;-74
2023/05/20 01:50:22;;;;;;;7.18;3.47;;;;;;;10.26;86.40;101891.06;5084942;28;20054;-74
2023/05/20 01:52:49;;;;;;;8.13;3.63;;;;;;;10.24;86.19;101887.66;5068833;28;20044;-74
2023/05/20 01:55:16;;;;;;;7.65;3.92;;;;;;;10.23;86.77;101891.16;5084925;28;20052;-74
2023/05/20 01:57:43;;;;;;;9.05;3.85;;;;;;;10.23;86.96;101888.53;5074648;28;21319;-74
2023/05/20 02:00:11;;;;;;;7.43;3.78;;;;;;;10.23;87.09;101888.53;5084737;28;20066;-74
2023/05/20 02:02:38;;;;;;;7.05;3.72;;;;;;;10.23;87.61;101885.06;5085911;28;20044;-74
2023/05/20 02:05:06;;;;;;;6.82;4.00;;;;;;;10.20;87.54;101880.75;5085196;28;20431;-75
2023/05/20 02:07:33;;;;;;;6.65;3.92;;;;;;;10.17;88.19;101882.63;5083902;28;20048;-73
2023/05/20 02:10:00;;;;;;;6.90;4.00;;;;;;;10.18;88.13;101884.34;5086326;28;20071;-74
2023/05/20 02:12:28;;;;;;;11.82;4.22;;;;;;;10.15;88.19;101875.66;5084351;28;20055;-74
2023/05/20 02:14:55;;;;;;;7.90;3.53;;;;;;;10.15;88.23;101886.19;5068668;28;20044;-75
2023/05/20 02:17:28;;;;;;;6.78;3.72;;;;;;;10.15;88.36;101883.53;5083967;28;20661;-74
2023/05/20 02:19:56;;;;;;;8.45;3.90;;;;;;;10.15;88.59;101885.31;5081885;28;20060;-75
2023/05/20 02:22:23;;;;;;;6.13;4.00;;;;;;;10.16;88.36;101879.13;5093635;28;20071;-74
2023/05/20 02:24:51;;;;;;;7.72;3.33;;;;;;;10.15;88.31;101882.69;5084451;28;20261;-74
2023/05/20 02:27:18;;;;;;;4.85;3.55;;;;;;;10.14;89.08;101887.09;5082572;28;20043;-74
2023/05/20 02:29:45;;;;;;;6.63;4.18;;;;;;;10.14;88.68;101879.22;5084026;28;20093;-74
2023/05/20 02:32:12;;;;;;;10.10;3.83;;;;;;;10.14;88.82;101881.84;5087296;28;20126;-75
2023/05/20 02:34:40;;;;;;;9.73;4.07;;;;;;;10.15;89.14;101878.28;5080717;28;20059;-74
2023/05/20 02:37:07;;;;;;;7.18;3.30;;;;;;;10.15;88.79;101880.06;5085436;28;20123;-74
2023/05/20 02:39:34;;;;;;;6.57;3.88;;;;;;;10.17;89.01;101882.63;5085692;28;20064;-74
2023/05/20 02:42:03;;;;;;;7.80;3.70;;;;;;;10.16;89.21;101879.13;5086337;28;20048;-75
2023/05/20 02:44:30;;;;;;;5.35;3.13;;;;;;;10.16;89.23;101879.13;5083410;28;20407;-74
2023/05/20 02:46:57;;;;;;;8.35;4.03;;;;;;;10.16;89.45;101892.28;5069014;28;20491;-74
2023/05/20 02:49:25;;;;;;;8.52;3.97;;;;;;;10.19;89.05;101892.19;5083650;28;20558;-74
2023/05/20 02:51:52;;;;;;;6.00;3.75;;;;;;;10.19;89.35;101886.94;5085987;28;20152;-74
2023/05/20 02:54:20;;;;;;;8.90;4.03;;;;;;;10.20;89.39;101891.28;5091600;28;20400;-74
2023/05/20 02:56:47;;;;;;;7.40;4.10;;;;;;;10.22;89.15;101892.09;5090088;28;20059;-74
2023/05/20 02:59:14;;;;;;;7.20;3.83;;;;;;;10.25;89.04;101889.34;5088623;28;20044;-75
2023/05/20 03:01:42;;;;;;;6.53;3.92;;;;;;;10.31;89.00;101896.16;5086012;28;20143;-74
2023/05/20 03:04:10;;;;;;;6.20;3.40;;;;;;;10.31;88.47;101886.50;5069619;28;20055;-74
2023/05/20 03:06:37;;;;;;;8.95;4.43;;;;;;;10.34;88.95;101885.53;5084836;28;20072;-73
2023/05/20 03:09:04;;;;;;;7.15;4.18;;;;;;;10.37;88.50;101888.91;5090199;28;20073;-73
2023/05/20 03:11:32;;;;;;;9.75;4.45;;;;;;;10.42;88.41;101899.25;5088528;28;20390;-74
2023/05/20 03:13:59;;;;;;;6.63;3.95;;;;;;;10.46;88.61;101900.88;5089546;28;20162;-74
2023/05/20 03:16:26;;;;;;;7.35;4.10;;;;;;;10.47;88.30;101904.34;5086983;28;20052;-74
2023/05/20 03:18:54;;;;;;;7.88;3.88;;;;;;;10.47;88.60;101907.84;5087749;28;20052;-78
2023/05/20 03:21:22;;;;;;;7.80;4.22;;;;;;;10.49;88.24;101911.28;5092658;28;20127;-74
2023/05/20 03:23:50;;;;;;;9.68;4.25;;;;;;;10.50;88.11;101910.38;5080907;28;20052;-74
2023/05/20 03:26:18;;;;;;;6.47;3.90;;;;;;;10.51;88.39;101904.16;5083242;28;20053;-74
2023/05/20 03:28:46;;;;;;;8.40;3.75;;;;;;;10.53;87.92;101899.69;5093644;28;20139;-75
2023/05/20 03:31:13;;;;;;;8.05;4.28;;;;;;;10.56;87.80;101904.84;5093746;28;20036;-75
2023/05/20 03:33:41;;;;;;;8.35;4.05;;;;;;;10.56;87.53;101906.63;5093133;28;20863;-74
2023/05/20 03:36:08;;;;;;;7.30;3.97;;;;;;;10.57;88.02;101905.69;5070422;28;20041;-74
2023/05/20 03:38:35;;;;;;;4.72;3.42;;;;;;;10.58;87.70;101910.03;5094303;28;20082;-74
2023/05/20 03:41:02;;;;;;;12.32;3.88;;;;;;;10.60;87.47;101908.22;5088646;28;20108;-74
2023/05/20 03:43:29;;;;;;;6.32;3.95;;;;;;;10.62;87.41;101914.28;5093527;28;20112;-74
2023/05/20 03:45:57;;;;;;;9.50;4.07;;;;;;;10.63;87.59;101919.50;5090643;28;20066;-73
2023/05/20 03:48:24;;;;;;;7.38;4.20;;;;;;;10.64;87.57;101915.94;5085231;28;20127;-74
2023/05/20 03:50:52;;;;;;;14.63;4.20;;;;;;;10.62;87.42;101923.03;5086924;28;20062;-74
2023/05/20 03:53:19;;;;;;;8.18;4.18;;;;;;;10.64;87.68;101910.69;5087654;28;20056;-74
2023/05/20 03:55:47;;;;;;;4.88;4.10;;;;;;;10.64;87.40;101917.72;5076197;28;20040;-74
2023/05/20 03:58:14;;;;;;;6.32;3.55;;;;;;;10.64;87.68;101915.09;5083793;28;20052;-74
2023/05/20 04:00:41;;;;;;;10.70;3.83;;;;;;;10.67;87.49;101922.00;5070974;28;20063;-73
2023/05/20 04:03:09;;;;;;;13.27;4.10;;;;;;;10.69;87.61;101920.19;5088524;28;20572;-74
2023/05/20 04:05:36;;;;;;;8.48;4.00;;;;;;;10.71;87.23;101915.69;5082728;28;20055;-74
2023/05/20 04:08:04;;;;;;;7.57;4.40;;;;;;;10.73;87.34;101913.88;5091684;28;20058;-74
2023/05/20 04:10:32;;;;;;;6.07;3.58;;;;;;;10.73;87.05;101917.38;5089207;28;20135;-74
2023/05/20 04:12:59;;;;;;;7.35;3.92;;;;;;;10.76;87.09;101913.75;5072457;28;20044;-74
2023/05/20 04:15:28;;;;;;;10.48;4.25;;;;;;;10.76;87.08;101906.72;5070918;28;20527;-73
2023/05/20 04:17:55;;;;;;;8.73;3.42;;;;;;;10.77;87.17;101904.94;5087068;28;20123;-74
2023/05/20 04:20:23;;;;;;;7.82;3.70;;;;;;;10.77;87.10;101900.53;5081397;28;20056;-74
2023/05/20 04:22:51;;;;;;;8.45;4.03;;;;;;;10.77;86.66;101900.53;5087035;28;20052;-74
2023/05/20 04:25:18;;;;;;;8.55;4.22;;;;;;;10.78;86.97;101902.25;5086022;28;20043;-73
2023/05/20 04:27:46;;;;;;;13.68;4.50;;;;;;;10.79;87.04;101903.09;5086716;28;20130;-74
2023/05/20 04:30:16;;;;;;;7.82;3.85;;;;;;;10.82;86.86;101906.47;5087876;28;20044;-73
2023/05/20 04:32:43;;;;;;;5.78;3.67;;;;;;;10.84;87.05;101909.91;5052436;28;20056;-73
2023/05/20 04:35:12;;;;;;;8.07;4.05;;;;;;;10.88;86.86;101908.00;5067822;28;20962;-73
2023/05/20 04:37:41;;;;;;;9.88;4.80;;;;;;;10.92;86.76;101904.31;5087418;28;20060;-73
2023/05/20 04:40:09;;;;;;;9.35;4.07;;;;;;;10.96;86.53;101907.72;5087961;28;20047;-73
2023/05/20 04:42:37;;;;;;;8.70;4.38;;;;;;;10.96;86.63;101902.44;5068808;28;20130;-73
2023/05/20 04:45:07;;;;;;;7.07;4.40;;;;;;;10.97;86.64;101910.28;5088761;28;20044;-74
2023/05/20 04:47:37;;;;;;;16.00;4.68;;;;;;;10.99;86.72;101911.09;5088088;28;20074;-74
2023/05/20 04:50:09;;;;;;;11.48;4.63;;;;;;;11.01;86.51;101917.13;5084786;28;20066;-73
2023/05/20 04:52:37;;;;;;;10.45;4.43;;;;;;;11.05;86.89;101916.09;5086283;28;20044;-74
2023/05/20 04:55:08;;;;;;;12.32;5.03;;;;;;;11.08;87.11;101915.97;5070461;28;20053;-73
2023/05/20 04:57:40;;;;;;;6.75;4.50;;;;;;;11.11;86.82;101909.72;5085708;28;20162;-74
2023/05/20 05:00:09;;;;;;;10.75;4.20;;;;;;;11.12;86.97;101917.56;5087998;28;20127;-74
2023/05/20 05:02:37;;;;;;;8.88;4.75;;;;;;;11.13;87.01;101907.88;5085710;28;20071;-73
2023/05/20 05:05:05;;;;;;;8.80;4.75;;;;;;;11.13;87.18;101897.34;5066935;28;20044;-76
2023/05/20 05:07:32;;;;;;;11.05;4.88;;;;;;;11.15;87.18;101906.03;5067418;28;20055;-73
2023/05/20 05:10:00;;;;;;;8.15;3.83;;;;;;;11.18;87.17;101903.28;5087014;28;20044;-74
2023/05/20 05:12:27;;;;;;;9.10;4.78;;;;;;;11.20;87.37;101897.94;5085228;28;20539;-74
2023/05/20 05:14:56;;;;;;;9.90;4.63;;;;;;;11.22;87.45;101904.03;5086284;28;20419;-74
2023/05/20 05:17:27;;;;;;;10.38;4.47;;;;;;;11.25;87.44;101898.59;5080120;28;20062;-73
2023/05/20 05:19:55;;;;;;;8.05;4.53;;;;;;;11.29;87.52;101898.41;5086336;28;20515;-74
2023/05/20 05:22:22;;;;;;;7.95;4.10;;;;;;;11.33;87.68;101897.38;5085373;28;20048;-74
2023/05/20 05:24:49;;;;;;;9.27;4.10;;;;;;;11.33;87.70;101894.72;5080287;28;20046;-74
2023/05/20 05:27:17;;;;;;;7.95;4.00;;;;;;;11.38;87.47;101899.81;5086123;28;20546;-75
2023/05/20 05:29:44;;;;;;;10.18;4.97;;;;;;;11.41;87.29;101904.97;5084496;28;20054;-74
2023/05/20 05:32:11;;;;;;;7.43;4.32;;;;;;;11.45;87.11;101908.34;5087118;28;20047;-74
2023/05/20 05:34:38;;;;;;;9.15;4.65;;;;;;;11.48;86.89;101901.13;5085993;28;20048;-74
2023/05/20 05:37:06;;;;;;;10.50;4.68;;;;;;;11.53;86.82;101900.97;5084958;28;20052;-74
2023/05/20 05:39:36;;;;;;;8.77;4.72;;;;;;;11.57;87.21;101902.53;5089917;28;20078;-75
2023/05/20 05:42:03;;;;;;;9.20;4.75;;;;;;;11.61;87.10;101904.97;5083400;28;20048;-75
2023/05/20 05:44:31;;;;;;;10.23;5.28;;;;;;;11.64;87.04;101896.91;5088338;28;20293;-76
2023/05/20 05:46:58;;;;;;;9.20;4.82;;;;;;;11.68;86.86;101907.34;5069278;28;20086;-75
2023/05/20 05:49:25;;;;;;;10.85;4.80;;;;;;;11.71;87.38;101902.81;5086045;28;20067;-74
2023/05/20 05:51:52;;;;;;;10.90;4.65;;;;;;;11.77;87.47;101899.91;5084362;28;20074;-75
2023/05/20 05:54:20;;;;;;;11.57;5.72;;;;;;;11.86;87.39;101896.88;5087663;28;20044;-74
2023/05/20 05:56:47;;;;;;;9.18;5.10;;;;;;;11.95;86.88;101892.97;5084081;28;20048;-74
2023/05/20 05:59:15;;;;;;;10.52;4.68;;;;;;;12.04;86.64;101887.28;5085698;28;20056;-75
2023/05/20 06:01:42;;;;;;;15.68;5.22;;;;;;;12.11;86.54;101886.09;5084824;28;20421;-75
2023/05/20 06:04:09;;;;;;;11.73;5.45;;;;;;;12.18;86.58;101881.38;5086816;28;20053;-75
2023/05/20 06:06:37;;;;;;;9.32;5.53;;;;;;;12.26;86.64;101878.41;5099375;28;20056;-75
2023/05/20 06:09:04;;;;;;;10.52;4.68;;;;;;;12.33;86.26;101879.81;5087135;28;20134;-74
2023/05/20 06:11:31;;;;;;;8.20;4.60;;;;;;;12.40;85.85;101875.97;5085273;28;20052;-75
2023/05/20 06:14:00;;;;;;;6.75;4.30;;;;;;;12.42;85.41;101871.47;5084802;28;20044;-74
2023/05/20 06:16:28;;;;;;;9.98;4.70;;;;;;;12.44;85.47;101874.91;5085714;28;20132;-74
2023/05/20 06:18:56;;;;;;;11.23;5.70;;;;;;;12.48;85.54;101873.84;5085852;28;20051;-75
2023/05/20 06:21:23;;;;;;;13.38;5.60;;;;;;;12.54;85.19;101872.69;5084032;28;20471;-75
2023/05/20 06:23:50;;;;;;;8.40;4.32;;;;;;;12.53;85.12;101868.34;5085127;28;20156;-75
2023/05/20 06:26:18;;;;;;;14.60;5.20;;;;;;;12.53;84.70;101879.75;5071189;28;20044;-74
2023/05/20 06:28:45;;;;;;;9.05;5.38;;;;;;;12.51;85.22;101881.59;5071795;28;20146;-75
2023/05/20 06:31:12;;;;;;;7.97;4.70;;;;;;;12.54;85.16;101880.63;5086515;28;20127;-77
2023/05/20 06:33:40;;;;;;;15.35;4.93;;;;;;;12.57;85.41;101885.75;5084131;28;20064;-74
2023/05/20 06:36:07;;;;;;;9.93;4.82;;;;;;;12.64;84.92;101884.53;5083014;28;20040;-74
2023/05/20 06:38:34;;;;;;;10.00;4.93;;;;;;;12.71;85.02;101880.69;5091411;28;20060;-75
2023/05/20 06:41:02;;;;;;;11.65;5.78;;;;;;;12.75;84.42;101882.25;5091449;28;20841;-74
2023/05/20 06:43:29;;;;;;;11.30;5.35;;;;;;;12.79;84.33;101889.09;5092124;28;20047;-74
2023/05/20 06:45:57;;;;;;;9.20;4.28;;;;;;;12.79;84.39;101880.28;5095357;28;20464;-74
2023/05/20 06:48:24;;;;;;;16.80;5.53;;;;;;;12.78;84.37;101882.06;5092969;28;20048;-74
2023/05/20 06:50:51;;;;;;;7.95;4.50;;;;;;;12.77;84.53;101880.38;5091262;28;20067;-74
2023/05/20 06:53:18;;;;;;;16.48;5.32;;;;;;;12.80;84.83;101887.31;5090325;28;20044;-73
2023/05/20 06:55:46;;;;;;;7.55;5.40;;;;;;;12.87;84.44;101880.78;5090856;28;20465;-74
2023/05/20 06:58:13;;;;;;;7.50;5.40;;;;;;;12.98;84.38;101886.41;5090350;28;20430;-75
2023/05/20 07:00:40;;;;;;;13.95;5.63;;;;;;;13.11;83.97;101876.09;5089558;28;20486;-74
2023/05/20 07:03:07;;;;;;;12.02;6.35;;;;;;;13.25;83.40;101878.94;5070441;28;20572;-74
2023/05/20 07:05:35;;;;;;;10.50;5.10;;;;;;;13.37;83.00;101886.25;5086709;28;20044;-76
2023/05/20 07:08:02;;;;;;;9.20;5.10;;;;;;;13.50;82.88;101888.25;5105181;28;20051;-74
2023/05/20 07:10:30;;;;;;;7.53;5.07;;;;;;;13.61;81.89;101880.66;5087068;28;20437;-74
2023/05/20 07:12:57;;;;;;;11.55;5.53;;;;;;;13.71;81.27;101876.59;5086034;28;20040;-74
2023/05/20 07:15:24;;;;;;;10.32;4.75;;;;;;;13.80;80.58;101880.53;5079062;28;20135;-75
2023/05/20 07:17:52;;;;;;;6.13;4.68;;;;;;;13.83;80.45;101880.38;5089009;28;20077;-74
2023/05/20 07:20:19;;;;;;;7.07;4.55;;;;;;;13.88;80.41;101875.72;5081480;28;20129;-74
2023/05/20 07:22:49;;;;;;;9.65;4.47;;;;;;;13.91;79.87;101878.16;5085928;28;20093;-75
2023/05/20 07:25:17;;;;;;;8.40;5.35;;;;;;;13.88;79.65;101883.66;5070149;28;20061;-75
2023/05/20 07:27:45;;;;;;;9.40;4.88;;;;;;;13.93;79.36;101877.16;5091597;28;20162;-74
2023/05/20 07:30:12;;;;;;;7.65;4.72;;;;;;;13.97;79.14;101877.00;5088999;28;20043;-74
2023/05/20 07:32:39;;;;;;;7.03;4.72;;;;;;;14.01;78.89;101874.13;5079273;28;20456;-75
2023/05/20 07:35:08;;;;;;;6.70;4.20;;;;;;;14.08;78.22;101872.84;5069091;28;20080;-75
2023/05/20 07:37:35;;;;;;;6.22;4.25;;;;;;;14.15;78.09;101865.44;5091002;28;20574;-75
2023/05/20 07:40:04;;;;;;;7.88;5.00;;;;;;;14.29;77.71;101859.38;5096024;28;20048;-75
2023/05/20 07:42:31;;;;;;;8.65;4.90;;;;;;;14.41;77.05;101862.22;5096239;28;20073;-75
2023/05/20 07:44:58;;;;;;;7.25;4.47;;;;;;;14.59;76.36;101860.38;5096656;28;20048;-74
2023/05/20 07:47:25;;;;;;;7.95;4.63;;;;;;;14.77;75.97;101858.47;5087831;28;20040;-74
2023/05/20 07:49:53;;;;;;;6.55;4.43;;;;;;;14.87;75.09;101864.09;5089124;28;20051;-74
2023/05/20 07:52:20;;;;;;;6.40;4.43;;;;;;;14.93;74.93;101855.78;5090324;28;20415;-75
2023/05/20 07:54:48;;;;;;;7.30;4.55;;;;;;;15.05;74.23;101855.09;5086242;28;20059;-73
2023/05/20 07:57:15;;;;;;;6.80;4.53;;;;;;;15.22;73.79;101847.91;5069718;28;20055;-74
2023/05/20 07:59:42;;;;;;;9.45;5.22;;;;;;;15.31;73.17;101842.06;5089753;28;20056;-74
2023/05/20 08:02:09;;;;;;;7.05;4.80;;;;;;;15.48;72.67;101841.91;5088000;28;20048;-74
2023/05/20 08:04:36;;;;;;;9.00;4.82;;;;;;;15.67;71.99;101839.91;5085395;28;20463;-74
2023/05/20 08:07:04;;;;;;;7.65;5.18;;;;;;;15.80;70.73;101836.50;5086112;28;20056;-74
2023/05/20 08:09:33;;;;;;;6.68;4.25;;;;;;;15.97;70.37;101838.94;5089124;28;20055;-74
2023/05/20 08:12:01;;;;;;;8.32;4.93;;;;;;;16.06;69.44;101841.03;5087394;28;20048;-75
2023/05/20 08:14:28;;;;;;;10.70;5.38;;;;;;;16.16;69.38;101844.81;5086130;28;20052;-74
2023/05/20 08:16:55;;;;;;;9.93;4.93;;;;;;;16.27;68.68;101843.31;5083484;28;20039;-74
2023/05/20 08:19:23;;;;;;;7.82;4.45;;;;;;;16.34;67.91;101834.81;5082782;28;20392;-74
2023/05/20 08:21:50;;;;;;;6.60;4.57;;;;;;;16.35;67.89;101836.56;5086371;28;20132;-75
2023/05/20 08:24:18;;;;;;;5.95;4.15;;;;;;;16.45;67.68;101839.47;5086725;28;20058;-75
2023/05/20 08:26:45;;;;;;;7.97;4.30;;;;;;;16.60;67.02;101834.97;5071100;28;20109;-74
2023/05/20 08:29:12;;;;;;;7.80;4.43;;;;;;;16.71;66.39;101843.94;5089355;28;20054;-76
2023/05/20 08:31:40;;;;;;;7.50;4.50;;;;;;;16.91;65.69;101844.47;5094567;28;20074;-74
2023/05/20 08:34:07;;;;;;;8.70;3.78;;;;;;;17.01;64.96;101829.59;5089356;28;20071;-76
2023/05/20 08:36:34;;;;;;;7.88;3.92;;;;;;;17.23;64.50;101830.81;5068948;28;20594;-76
2023/05/20 08:39:03;;;;;;;6.07;3.47;;;;;;;17.38;64.17;101835.97;5087429;28;20055;-76
2023/05/20 08:41:30;;;;;;;7.60;3.90;;;;;;;17.58;63.77;101829.25;5089207;28;20052;-73
2023/05/20 08:44:00;;;;;;;12.38;3.97;;;;;;;17.72;62.72;101821.16;5087824;28;20048;-75
2023/05/20 08:46:27;;;;;;;7.90;4.10;;;;;;;17.73;62.22;101811.34;5050452;28;20636;-74
2023/05/20 08:48:54;;;;;;;15.52;4.15;;;;;;;17.74;61.92;101828.22;5088363;28;20056;-74
2023/05/20 08:51:24;;;;;;;6.15;3.78;;;;;;;17.68;61.70;101819.66;5086230;28;20135;-74
2023/05/20 08:53:51;;;;;;;10.68;4.55;;;;;;;17.70;61.79;101817.75;5086260;28;20462;-73
2023/05/20 08:56:20;;;;;;;7.15;4.13;;;;;;;17.51;61.74;101819.13;5087745;28;20049;-73
2023/05/20 08:58:48;;;;;;;8.35;3.97;;;;;;;17.34;61.84;101825.63;5069338;28;20521;-73
2023/05/20 09:01:15;;;;;;;7.55;4.10;;;;;;;17.28;62.29;101820.72;5089444;28;20047;-74
2023/05/20 09:03:43;;;;;;;6.05;4.18;;;;;;;17.25;62.38;101826.25;5093241;28;20063;-74
2023/05/20 09:06:15;;;;;;;8.52;4.25;;;;;;;17.24;62.68;101821.88;5087959;28;20131;-73
2023/05/20 09:08:43;;;;;;;5.18;4.22;;;;;;;17.14;62.63;101811.00;5074631;28;20808;-73
2023/05/20 09:11:11;;;;;;;6.68;3.97;;;;;;;17.09;63.23;101821.13;5090009;28;20511;-74
2023/05/20 09:13:38;;;;;;;6.18;3.88;;;;;;;17.10;63.17;101817.50;5050392;28;20052;-74
2023/05/20 09:16:05;;;;;;;8.25;3.90;;;;;;;17.13;63.12;101820.81;5089103;28;20047;-74
2023/05/20 09:18:33;;;;;;;9.20;5.30;;;;;;;17.20;62.95;101818.56;5089129;28;20599;-74
2023/05/20 09:21:05;;;;;;;5.75;4.63;;;;;;;17.27;62.86;101827.84;5090450;28;20055;-74
2023/05/20 09:27:03;;;;;;;8.82;4.88;;;;;;;17.30;62.55;101821.47;5084364;28;20054;-74
2023/05/20 09:29:32;;;;;;;7.38;4.20;;;;;;;17.28;62.79;101815.38;5083672;28;20048;-74
2023/05/20 09:32:01;;;;;;;5.32;4.00;;;;;;;17.21;63.12;101812.31;5087640;28;20050;-73
2023/05/20 09:34:29;;;;;;;6.70;4.43;;;;;;;17.14;63.40;101811.00;5089796;28;20052;-74
2023/05/20 09:36:58;;;;;;;9.18;4.35;;;;;;;17.12;63.51;101815.59;5087295;28;20035;-74
2023/05/20 09:39:29;;;;;;;6.07;4.65;;;;;;;17.18;63.29;101810.69;5084815;28;20142;-75
2023/05/20 09:42:12;;;;;;;11.02;5.38;;;;;;;17.19;63.02;101814.22;5086596;28;20048;-74
2023/05/20 09:44:41;;;;;;;9.23;5.28;;;;;;;17.24;63.24;101811.22;5086834;28;20525;-74
2023/05/20 09:47:08;;;;;;;9.10;6.32;;;;;;;17.30;62.99;101809.03;5088635;28;20040;-75
2023/05/20 09:49:36;;;;;;;10.88;5.65;;;;;;;17.36;62.83;101810.41;5087091;28;20109;-75
2023/05/20 09:52:04;;;;;;;12.50;6.78;;;;;;;17.42;62.23;101812.63;5085412;28;20098;-74
2023/05/20 09:54:32;;;;;;;10.63;6.57;;;;;;;17.51;61.85;101814.66;5084069;28;20066;-74
2023/05/20 09:56:59;;;;;;;7.78;6.13;;;;;;;17.46;61.58;101814.13;5088857;28;20610;-74
2023/05/20 09:59:28;;;;;;;17.02;7.35;;;;;;;17.35;61.82;101806.88;5065545;28;20074;-74
2023/05/20 10:01:55;;;;;;;10.05;6.82;;;;;;;17.25;62.24;101804.97;5077851;28;20128;-73
2023/05/20 10:04:24;;;;;;;9.77;6.53;;;;;;;17.19;62.52;101815.06;5094507;28;20661;-74
2023/05/20 10:07:06;;;;;;;8.32;6.40;;;;;;;17.08;62.68;101811.44;5094413;28;20135;-74
2023/05/20 10:09:36;;;;;;;9.68;6.07;;;;;;;17.05;62.92;101809.81;5088673;28;20054;-74
2023/05/20 10:12:31;;;;;;;9.35;6.53;;;;;;;17.05;63.27;101814.28;5090891;28;20098;-74
2023/05/20 10:15:10;;;;;;;9.48;6.78;;;;;;;17.14;63.16;101811.84;5086218;28;20112;-74
2023/05/20 10:17:52;;;;;;;7.90;6.00;;;;;;;17.25;63.05;101815.63;5073268;28;20707;-74
2023/05/20 10:20:19;;;;;;;12.20;6.75;;;;;;;17.19;62.72;101806.22;5084697;28;20147;-73
2023/05/20 10:22:56;;;;;;;8.27;6.80;;;;;;;17.12;63.17;101804.94;5085723;28;20064;-73
2023/05/20 10:25:27;;;;;;;10.13;6.53;;;;;;;17.26;63.01;101801.34;5101574;28;20535;-74
2023/05/20 10:28:07;;;;;;;12.30;7.28;;;;;;;17.35;62.92;101806.03;5072967;28;20040;-73
2023/05/20 10:30:34;;;;;;;8.45;6.22;;;;;;;17.44;62.89;101798.28;5088137;28;20147;-73
2023/05/20 10:33:05;;;;;;;10.68;7.55;;;;;;;17.54;62.32;101805.63;5083034;28;20052;-74
2023/05/20 10:35:33;;;;;;;7.22;6.38;;;;;;;17.72;61.82;101796.34;5087214;28;20062;-74
2023/05/20 10:38:09;;;;;;;11.35;6.82;;;;;;;17.90;60.75;101794.22;5090521;28;20163;-75
2023/05/20 10:40:37;;;;;;;8.30;6.78;;;;;;;17.95;60.61;101797.41;5071585;28;20048;-75
2023/05/20 10:43:24;;;;;;;7.80;6.63;;;;;;;17.98;60.80;101785.69;5073148;28;20048;-74
2023/05/20 10:45:53;;;;;;;8.77;6.50;;;;;;;18.36;60.23;101793.56;5103446;28;20054;-75
2023/05/20 10:48:27;;;;;;;7.95;6.22;;;;;;;18.89;59.86;101784.28;5089667;28;20393;-74
2023/05/20 10:50:58;;;;;;;10.80;6.72;;;;;;;19.39;58.08;101779.53;5086854;28;20056;-76
2023/05/20 10:53:26;;;;;;;8.40;6.10;;;;;;;19.68;57.07;101774.63;5089687;28;20111;-75
2023/05/20 10:56:01;;;;;;;8.93;5.88;;;;;;;19.62;55.91;101772.41;5089116;28;20048;-74
2023/05/20 10:58:37;;;;;;;9.10;5.90;;;;;;;19.73;56.72;101767.09;5091853;28;20046;-74
2023/05/20 11:01:04;;;;;;;9.60;5.88;;;;;;;19.85;55.97;101775.09;5084730;28;20141;-74
2023/05/20 11:03:34;;;;;;;7.72;5.95;;;;;;;19.88;55.61;101762.34;5089634;28;20062;-74
2023/05/20 11:06:10;;;;;;;8.77;6.13;;;;;;;19.92;55.11;101755.78;5083265;28;20063;-74
2023/05/20 11:08:37;;;;;;;8.38;6.82;;;;;;;19.79;54.55;101763.06;5087221;28;20044;-73
2023/05/20 11:11:05;;;;;;;11.75;7.15;;;;;;;19.64;54.56;101759.81;5089854;28;20131;-74
2023/05/20 11:13:33;;;;;;;9.60;6.93;;;;;;;19.66;54.77;101744.50;5088156;28;20080;-75
2023/05/20 11:16:00;;;;;;;8.82;6.35;;;;;;;19.79;54.60;101754.22;5071863;28;20293;-74
2023/05/20 11:18:29;;;;;;;8.20;6.25;;;;;;;20.28;53.91;101758.25;5090171;28;20098;-75
2023/05/20 11:21:00;;;;;;;9.20;6.60;;;;;;;20.68;52.88;101755.84;5084232;28;20074;-74
2023/05/20 11:23:28;;;;;;;8.15;6.50;;;;;;;20.93;51.23;101752.78;5087603;28;20613;-74
2023/05/20 11:25:56;;;;;;;9.05;6.15;;;;;;;21.22;50.10;101758.34;5087327;28;20102;-74
2023/05/20 11:28:23;;;;;;;8.70;6.20;;;;;;;21.39;49.92;101746.19;5087094;28;20028;-74
2023/05/20 11:30:52;;;;;;;6.50;5.43;;;;;;;21.47;49.44;101748.19;5071173;28;20051;-74
2023/05/20 11:33:19;;;;;;;10.25;6.07;;;;;;;21.68;49.71;101745.47;5088858;28;20393;-74